sensor_id;sensor_type;location;lat;lon;timestamp;P1;durP1;ratioP1;P2;durP2;ratioP2
11139;SDS011;5624;49.388;11.350;2022-08-19T00:00:44;27.30;;;24.33;;
11139;SDS011;5624;49.388;11.350;2022-08-19T00:03:10;27.08;;;24.27;;
11139;SDS011;5624;49.388;11.350;2022-08-19T00:05:36;27.42;;;24.65;;
11139;SDS011;5624;49.388;11.350;2022-08-19T00:08:02;26.52;;;23.77;;
11139;SDS011;5624;49.388;11.350;2022-08-19T00:10:28;26.92;;;24.23;;
11139;SDS011;5624;49.388;11.350;2022-08-19T00:12:54;27.23;;;24.45;;
11139;SDS011;5624;49.388;11.350;2022-08-19T00:15:20;27.80;;;24.80;;
11139;SDS011;5624;49.388;11.350;2022-08-19T00:17:47;27.48;;;24.67;;
11139;SDS011;5624;49.388;11.350;2022-08-19T00:20:14;27.33;;;24.63;;
11139;SDS011;5624;49.388;11.350;2022-08-19T00:22:43;27.20;;;24.48;;
11139;SDS011;5624;49.388;11.350;2022-08-19T00:25:10;28.20;;;25.27;;
11139;SDS011;5624;49.388;11.350;2022-08-19T00:27:36;29.02;;;26.10;;
11139;SDS011;5624;49.388;11.350;2022-08-19T00:30:03;29.80;;;26.77;;
11139;SDS011;5624;49.388;11.350;2022-08-19T00:32:30;28.42;;;25.60;;
11139;SDS011;5624;49.388;11.350;2022-08-19T00:34:56;28.60;;;25.63;;
11139;SDS011;5624;49.388;11.350;2022-08-19T00:37:23;29.05;;;26.13;;
11139;SDS011;5624;49.388;11.350;2022-08-19T00:39:51;26.42;;;23.75;;
11139;SDS011;5624;49.388;11.350;2022-08-19T00:42:18;29.30;;;26.45;;
11139;SDS011;5624;49.388;11.350;2022-08-19T00:44:45;30.33;;;26.98;;
11139;SDS011;5624;49.388;11.350;2022-08-19T00:47:11;28.35;;;25.45;;
11139;SDS011;5624;49.388;11.350;2022-08-19T00:49:40;28.83;;;25.90;;
11139;SDS011;5624;49.388;11.350;2022-08-19T00:52:14;29.77;;;26.75;;
11139;SDS011;5624;49.388;11.350;2022-08-19T00:54:43;31.63;;;28.30;;
11139;SDS011;5624;49.388;11.350;2022-08-19T00:57:14;30.88;;;27.67;;
11139;SDS011;5624;49.388;11.350;2022-08-19T00:59:44;31.00;;;27.83;;
11139;SDS011;5624;49.388;11.350;2022-08-19T01:02:13;35.38;;;30.05;;
11139;SDS011;5624;49.388;11.350;2022-08-19T01:04:40;31.45;;;28.10;;
11139;SDS011;5624;49.388;11.350;2022-08-19T01:07:06;32.05;;;28.88;;
11139;SDS011;5624;49.388;11.350;2022-08-19T01:09:32;29.83;;;26.65;;
11139;SDS011;5624;49.388;11.350;2022-08-19T01:11:58;32.97;;;27.80;;
11139;SDS011;5624;49.388;11.350;2022-08-19T01:14:25;31.27;;;27.98;;
11139;SDS011;5624;49.388;11.350;2022-08-19T01:16:51;32.25;;;29.00;;
11139;SDS011;5624;49.388;11.350;2022-08-19T01:21:55;30.60;;;27.50;;
11139;SDS011;5624;49.388;11.350;2022-08-19T01:24:26;28.60;;;25.63;;
11139;SDS011;5624;49.388;11.350;2022-08-19T01:26:52;28.98;;;26.20;;
11139;SDS011;5624;49.388;11.350;2022-08-19T01:29:18;30.92;;;27.83;;
11139;SDS011;5624;49.388;11.350;2022-08-19T01:31:44;31.77;;;27.67;;
11139;SDS011;5624;49.388;11.350;2022-08-19T01:34:09;30.30;;;26.95;;
11139;SDS011;5624;49.388;11.350;2022-08-19T01:36:37;29.80;;;26.75;;
11139;SDS011;5624;49.388;11.350;2022-08-19T01:39:08;30.35;;;26.77;;
11139;SDS011;5624;49.388;11.350;2022-08-19T01:41:35;30.50;;;27.20;;
11139;SDS011;5624;49.388;11.350;2022-08-19T01:44:01;32.30;;;29.05;;
11139;SDS011;5624;49.388;11.350;2022-08-19T01:46:28;32.00;;;28.70;;
11139;SDS011;5624;49.388;11.350;2022-08-19T01:48:55;30.55;;;27.45;;
11139;SDS011;5624;49.388;11.350;2022-08-19T01:51:21;32.17;;;28.90;;
11139;SDS011;5624;49.388;11.350;2022-08-19T01:53:47;31.33;;;28.23;;
11139;SDS011;5624;49.388;11.350;2022-08-19T01:56:14;32.47;;;29.13;;
11139;SDS011;5624;49.388;11.350;2022-08-19T01:58:41;32.85;;;29.55;;
11139;SDS011;5624;49.388;11.350;2022-08-19T02:01:11;32.83;;;29.08;;
11139;SDS011;5624;49.388;11.350;2022-08-19T02:03:37;33.58;;;30.20;;
11139;SDS011;5624;49.388;11.350;2022-08-19T02:06:03;32.33;;;28.90;;
11139;SDS011;5624;49.388;11.350;2022-08-19T02:08:30;31.85;;;28.55;;
11139;SDS011;5624;49.388;11.350;2022-08-19T02:10:59;30.70;;;27.73;;
11139;SDS011;5624;49.388;11.350;2022-08-19T02:13:25;32.40;;;29.00;;
11139;SDS011;5624;49.388;11.350;2022-08-19T02:15:52;31.38;;;28.27;;
11139;SDS011;5624;49.388;11.350;2022-08-19T02:18:17;33.00;;;29.50;;
11139;SDS011;5624;49.388;11.350;2022-08-19T02:20:43;31.88;;;28.73;;
11139;SDS011;5624;49.388;11.350;2022-08-19T02:23:10;32.33;;;29.10;;
11139;SDS011;5624;49.388;11.350;2022-08-19T02:25:36;31.45;;;28.35;;
11139;SDS011;5624;49.388;11.350;2022-08-19T02:28:02;32.38;;;28.90;;
11139;SDS011;5624;49.388;11.350;2022-08-19T02:30:28;31.00;;;27.88;;
11139;SDS011;5624;49.388;11.350;2022-08-19T02:32:55;31.63;;;28.38;;
11139;SDS011;5624;49.388;11.350;2022-08-19T02:35:20;32.90;;;29.42;;
11139;SDS011;5624;49.388;11.350;2022-08-19T02:37:46;29.40;;;26.35;;
11139;SDS011;5624;49.388;11.350;2022-08-19T02:40:32;31.05;;;27.73;;
11139;SDS011;5624;49.388;11.350;2022-08-19T02:42:59;31.67;;;28.50;;
11139;SDS011;5624;49.388;11.350;2022-08-19T02:45:25;29.80;;;26.85;;
11139;SDS011;5624;49.388;11.350;2022-08-19T02:47:51;29.05;;;25.95;;
11139;SDS011;5624;49.388;11.350;2022-08-19T02:50:17;30.13;;;26.92;;
11139;SDS011;5624;49.388;11.350;2022-08-19T02:52:43;31.33;;;28.02;;
11139;SDS011;5624;49.388;11.350;2022-08-19T02:55:10;30.27;;;27.08;;
11139;SDS011;5624;49.388;11.350;2022-08-19T02:57:35;29.10;;;26.30;;
11139;SDS011;5624;49.388;11.350;2022-08-19T03:00:04;31.02;;;27.98;;
11139;SDS011;5624;49.388;11.350;2022-08-19T03:02:31;30.52;;;27.33;;
11139;SDS011;5624;49.388;11.350;2022-08-19T03:04:57;31.55;;;28.27;;
11139;SDS011;5624;49.388;11.350;2022-08-19T03:07:22;30.23;;;26.92;;
11139;SDS011;5624;49.388;11.350;2022-08-19T03:09:48;32.15;;;27.90;;
11139;SDS011;5624;49.388;11.350;2022-08-19T03:12:14;28.08;;;25.23;;
11139;SDS011;5624;49.388;11.350;2022-08-19T03:14:39;28.17;;;25.38;;
11139;SDS011;5624;49.388;11.350;2022-08-19T03:17:05;34.33;;;29.13;;
11139;SDS011;5624;49.388;11.350;2022-08-19T03:19:31;29.77;;;26.77;;
11139;SDS011;5624;49.388;11.350;2022-08-19T03:21:57;28.23;;;25.05;;
11139;SDS011;5624;49.388;11.350;2022-08-19T03:24:23;29.95;;;26.27;;
11139;SDS011;5624;49.388;11.350;2022-08-19T03:26:51;29.42;;;26.55;;
11139;SDS011;5624;49.388;11.350;2022-08-19T03:29:22;29.52;;;26.52;;
11139;SDS011;5624;49.388;11.350;2022-08-19T03:31:48;30.08;;;26.98;;
11139;SDS011;5624;49.388;11.350;2022-08-19T03:34:27;27.83;;;24.92;;
11139;SDS011;5624;49.388;11.350;2022-08-19T03:36:55;29.55;;;26.67;;
11139;SDS011;5624;49.388;11.350;2022-08-19T03:39:36;27.92;;;25.13;;
11139;SDS011;5624;49.388;11.350;2022-08-19T03:42:03;28.65;;;25.55;;
11139;SDS011;5624;49.388;11.350;2022-08-19T03:44:29;30.05;;;26.95;;
11139;SDS011;5624;49.388;11.350;2022-08-19T03:46:58;29.92;;;26.02;;
11139;SDS011;5624;49.388;11.350;2022-08-19T03:49:26;28.35;;;25.50;;
11139;SDS011;5624;49.388;11.350;2022-08-19T03:51:54;30.20;;;27.10;;
11139;SDS011;5624;49.388;11.350;2022-08-19T03:54:22;28.08;;;25.15;;
11139;SDS011;5624;49.388;11.350;2022-08-19T03:56:50;29.48;;;26.38;;
11139;SDS011;5624;49.388;11.350;2022-08-19T03:59:21;31.65;;;28.42;;
11139;SDS011;5624;49.388;11.350;2022-08-19T04:01:54;29.52;;;26.50;;
11139;SDS011;5624;49.388;11.350;2022-08-19T04:04:22;29.65;;;26.45;;
11139;SDS011;5624;49.388;11.350;2022-08-19T04:06:48;30.52;;;26.30;;
11139;SDS011;5624;49.388;11.350;2022-08-19T04:09:14;27.50;;;24.63;;
11139;SDS011;5624;49.388;11.350;2022-08-19T04:11:42;29.27;;;26.38;;
11139;SDS011;5624;49.388;11.350;2022-08-19T04:14:11;30.02;;;26.92;;
11139;SDS011;5624;49.388;11.350;2022-08-19T04:16:39;29.05;;;25.58;;
11139;SDS011;5624;49.388;11.350;2022-08-19T04:19:05;28.05;;;25.25;;
11139;SDS011;5624;49.388;11.350;2022-08-19T04:21:32;29.48;;;26.42;;
11139;SDS011;5624;49.388;11.350;2022-08-19T04:23:58;29.10;;;26.10;;
11139;SDS011;5624;49.388;11.350;2022-08-19T04:26:27;30.73;;;27.52;;
11139;SDS011;5624;49.388;11.350;2022-08-19T04:29:04;32.33;;;26.70;;
11139;SDS011;5624;49.388;11.350;2022-08-19T04:31:34;32.08;;;27.90;;
11139;SDS011;5624;49.388;11.350;2022-08-19T04:34:04;29.83;;;26.65;;
11139;SDS011;5624;49.388;11.350;2022-08-19T04:36:33;26.85;;;24.02;;
11139;SDS011;5624;49.388;11.350;2022-08-19T04:39:03;28.20;;;25.30;;
11139;SDS011;5624;49.388;11.350;2022-08-19T04:41:30;30.77;;;25.60;;
11139;SDS011;5624;49.388;11.350;2022-08-19T04:44:14;27.67;;;24.67;;
11139;SDS011;5624;49.388;11.350;2022-08-19T04:46:43;30.52;;;26.83;;
11139;SDS011;5624;49.388;11.350;2022-08-19T04:49:09;28.25;;;25.38;;
11139;SDS011;5624;49.388;11.350;2022-08-19T04:51:36;27.77;;;24.80;;
11139;SDS011;5624;49.388;11.350;2022-08-19T04:54:05;28.35;;;25.33;;
11139;SDS011;5624;49.388;11.350;2022-08-19T04:56:31;27.75;;;24.77;;
11139;SDS011;5624;49.388;11.350;2022-08-19T04:58:58;27.65;;;24.83;;
11139;SDS011;5624;49.388;11.350;2022-08-19T05:01:29;26.85;;;24.17;;
11139;SDS011;5624;49.388;11.350;2022-08-19T05:03:58;27.40;;;24.50;;
11139;SDS011;5624;49.388;11.350;2022-08-19T05:06:28;26.08;;;23.27;;
11139;SDS011;5624;49.388;11.350;2022-08-19T05:08:59;27.33;;;24.42;;
11139;SDS011;5624;49.388;11.350;2022-08-19T05:11:33;26.75;;;23.92;;
11139;SDS011;5624;49.388;11.350;2022-08-19T05:14:04;28.13;;;25.23;;
11139;SDS011;5624;49.388;11.350;2022-08-19T05:16:34;27.70;;;23.35;;
11139;SDS011;5624;49.388;11.350;2022-08-19T05:19:00;26.25;;;23.65;;
11139;SDS011;5624;49.388;11.350;2022-08-19T05:21:46;23.98;;;21.48;;
11139;SDS011;5624;49.388;11.350;2022-08-19T05:24:31;26.15;;;23.42;;
11139;SDS011;5624;49.388;11.350;2022-08-19T05:26:59;26.55;;;23.85;;
11139;SDS011;5624;49.388;11.350;2022-08-19T05:29:28;25.25;;;22.80;;
11139;SDS011;5624;49.388;11.350;2022-08-19T05:31:56;26.17;;;23.50;;
11139;SDS011;5624;49.388;11.350;2022-08-19T05:34:24;25.60;;;22.70;;
11139;SDS011;5624;49.388;11.350;2022-08-19T05:36:55;24.48;;;21.88;;
11139;SDS011;5624;49.388;11.350;2022-08-19T05:39:25;25.33;;;22.65;;
11139;SDS011;5624;49.388;11.350;2022-08-19T05:41:54;23.48;;;20.98;;
11139;SDS011;5624;49.388;11.350;2022-08-19T05:44:24;25.52;;;22.92;;
11139;SDS011;5624;49.388;11.350;2022-08-19T05:46:52;26.80;;;24.10;;
11139;SDS011;5624;49.388;11.350;2022-08-19T05:49:21;26.02;;;22.85;;
11139;SDS011;5624;49.388;11.350;2022-08-19T05:51:48;25.83;;;23.33;;
11139;SDS011;5624;49.388;11.350;2022-08-19T05:54:15;26.42;;;23.83;;
11139;SDS011;5624;49.388;11.350;2022-08-19T05:56:43;27.88;;;25.05;;
11139;SDS011;5624;49.388;11.350;2022-08-19T05:59:10;24.90;;;22.30;;
11139;SDS011;5624;49.388;11.350;2022-08-19T06:01:39;27.45;;;22.92;;
11139;SDS011;5624;49.388;11.350;2022-08-19T06:04:07;23.38;;;20.98;;
11139;SDS011;5624;49.388;11.350;2022-08-19T06:06:33;23.35;;;20.88;;
11139;SDS011;5624;49.388;11.350;2022-08-19T06:09:04;24.27;;;21.85;;
11139;SDS011;5624;49.388;11.350;2022-08-19T06:11:32;22.25;;;19.92;;
11139;SDS011;5624;49.388;11.350;2022-08-19T06:14:05;23.80;;;21.25;;
11139;SDS011;5624;49.388;11.350;2022-08-19T06:16:34;23.95;;;21.55;;
11139;SDS011;5624;49.388;11.350;2022-08-19T06:19:03;23.83;;;21.35;;
11139;SDS011;5624;49.388;11.350;2022-08-19T06:21:32;20.95;;;18.73;;
11139;SDS011;5624;49.388;11.350;2022-08-19T06:23:58;20.98;;;18.92;;
11139;SDS011;5624;49.388;11.350;2022-08-19T06:26:24;22.00;;;19.80;;
11139;SDS011;5624;49.388;11.350;2022-08-19T06:28:51;20.38;;;18.35;;
11139;SDS011;5624;49.388;11.350;2022-08-19T06:31:19;19.92;;;17.85;;
11139;SDS011;5624;49.388;11.350;2022-08-19T06:33:47;19.90;;;18.02;;
11139;SDS011;5624;49.388;11.350;2022-08-19T06:36:33;19.65;;;17.75;;
11139;SDS011;5624;49.388;11.350;2022-08-19T06:39:05;17.60;;;15.90;;
11139;SDS011;5624;49.388;11.350;2022-08-19T06:41:36;18.45;;;16.55;;
11139;SDS011;5624;49.388;11.350;2022-08-19T06:44:06;20.05;;;17.98;;
11139;SDS011;5624;49.388;11.350;2022-08-19T06:46:32;18.55;;;16.67;;
11139;SDS011;5624;49.388;11.350;2022-08-19T06:48:59;17.92;;;16.27;;
11139;SDS011;5624;49.388;11.350;2022-08-19T06:51:25;19.83;;;17.92;;
11139;SDS011;5624;49.388;11.350;2022-08-19T06:53:52;20.73;;;18.67;;
11139;SDS011;5624;49.388;11.350;2022-08-19T06:56:20;19.10;;;17.40;;
11139;SDS011;5624;49.388;11.350;2022-08-19T06:58:49;20.15;;;18.15;;
11139;SDS011;5624;49.388;11.350;2022-08-19T07:01:18;15.90;;;14.40;;
11139;SDS011;5624;49.388;11.350;2022-08-19T07:03:45;14.55;;;12.88;;
11139;SDS011;5624;49.388;11.350;2022-08-19T07:06:15;15.23;;;12.70;;
11139;SDS011;5624;49.388;11.350;2022-08-19T07:08:43;12.25;;;11.02;;
11139;SDS011;5624;49.388;11.350;2022-08-19T07:11:11;13.57;;;12.18;;
11139;SDS011;5624;49.388;11.350;2022-08-19T07:13:40;14.45;;;12.77;;
11139;SDS011;5624;49.388;11.350;2022-08-19T07:16:09;15.50;;;13.13;;
11139;SDS011;5624;49.388;11.350;2022-08-19T07:18:36;15.82;;;13.70;;
11139;SDS011;5624;49.388;11.350;2022-08-19T07:21:06;14.73;;;13.23;;
11139;SDS011;5624;49.388;11.350;2022-08-19T07:23:35;17.73;;;14.30;;
11139;SDS011;5624;49.388;11.350;2022-08-19T07:26:08;14.85;;;13.30;;
11139;SDS011;5624;49.388;11.350;2022-08-19T07:28:35;15.65;;;13.43;;
11139;SDS011;5624;49.388;11.350;2022-08-19T07:31:04;14.65;;;13.25;;
11139;SDS011;5624;49.388;11.350;2022-08-19T07:33:31;15.90;;;14.25;;
11139;SDS011;5624;49.388;11.350;2022-08-19T07:35:58;15.98;;;13.40;;
11139;SDS011;5624;49.388;11.350;2022-08-19T07:38:24;14.98;;;13.48;;
11139;SDS011;5624;49.388;11.350;2022-08-19T07:40:50;14.82;;;13.27;;
11139;SDS011;5624;49.388;11.350;2022-08-19T07:43:17;15.60;;;14.02;;
11139;SDS011;5624;49.388;11.350;2022-08-19T07:45:45;14.98;;;13.45;;
11139;SDS011;5624;49.388;11.350;2022-08-19T07:48:12;15.88;;;13.75;;
11139;SDS011;5624;49.388;11.350;2022-08-19T07:50:39;15.05;;;13.63;;
11139;SDS011;5624;49.388;11.350;2022-08-19T07:53:05;15.07;;;13.60;;
11139;SDS011;5624;49.388;11.350;2022-08-19T07:55:31;15.20;;;13.77;;
11139;SDS011;5624;49.388;11.350;2022-08-19T07:57:57;13.77;;;12.40;;
11139;SDS011;5624;49.388;11.350;2022-08-19T08:00:23;16.55;;;14.02;;
11139;SDS011;5624;49.388;11.350;2022-08-19T08:02:49;15.02;;;13.43;;
11139;SDS011;5624;49.388;11.350;2022-08-19T08:05:15;15.10;;;13.23;;
11139;SDS011;5624;49.388;11.350;2022-08-19T08:07:59;14.48;;;12.63;;
11139;SDS011;5624;49.388;11.350;2022-08-19T08:10:44;14.93;;;13.38;;
11139;SDS011;5624;49.388;11.350;2022-08-19T08:13:10;13.93;;;12.23;;
11139;SDS011;5624;49.388;11.350;2022-08-19T08:15:36;13.82;;;12.38;;
11139;SDS011;5624;49.388;11.350;2022-08-19T08:18:03;14.43;;;13.02;;
11139;SDS011;5624;49.388;11.350;2022-08-19T08:20:29;14.13;;;12.73;;
11139;SDS011;5624;49.388;11.350;2022-08-19T08:22:55;12.68;;;11.43;;
11139;SDS011;5624;49.388;11.350;2022-08-19T08:25:40;14.38;;;12.70;;
11139;SDS011;5624;49.388;11.350;2022-08-19T08:28:06;13.88;;;12.27;;
11139;SDS011;5624;49.388;11.350;2022-08-19T08:30:34;14.07;;;12.57;;
11139;SDS011;5624;49.388;11.350;2022-08-19T08:33:01;14.02;;;12.63;;
11139;SDS011;5624;49.388;11.350;2022-08-19T08:35:26;14.02;;;12.57;;
11139;SDS011;5624;49.388;11.350;2022-08-19T08:37:53;13.30;;;11.88;;
11139;SDS011;5624;49.388;11.350;2022-08-19T08:43:08;14.63;;;12.80;;
11139;SDS011;5624;49.388;11.350;2022-08-19T08:46:05;14.15;;;12.65;;
11139;SDS011;5624;49.388;11.350;2022-08-19T08:51:48;14.15;;;12.68;;
11139;SDS011;5624;49.388;11.350;2022-08-19T08:54:19;14.23;;;12.23;;
11139;SDS011;5624;49.388;11.350;2022-08-19T08:56:48;13.38;;;12.02;;
11139;SDS011;5624;49.388;11.350;2022-08-19T08:59:27;14.20;;;12.80;;
11139;SDS011;5624;49.388;11.350;2022-08-19T09:01:59;14.65;;;13.18;;
11139;SDS011;5624;49.388;11.350;2022-08-19T09:04:25;14.38;;;12.25;;
11139;SDS011;5624;49.388;11.350;2022-08-19T09:06:53;14.43;;;12.93;;
11139;SDS011;5624;49.388;11.350;2022-08-19T09:09:40;15.35;;;13.73;;
11139;SDS011;5624;49.388;11.350;2022-08-19T09:14:51;15.40;;;13.70;;
11139;SDS011;5624;49.388;11.350;2022-08-19T09:17:23;15.20;;;13.10;;
11139;SDS011;5624;49.388;11.350;2022-08-19T09:22:34;15.23;;;13.65;;
11139;SDS011;5624;49.388;11.350;2022-08-19T09:25:04;14.32;;;12.93;;
11139;SDS011;5624;49.388;11.350;2022-08-19T09:27:31;15.27;;;13.68;;
11139;SDS011;5624;49.388;11.350;2022-08-19T09:29:57;15.57;;;13.98;;
11139;SDS011;5624;49.388;11.350;2022-08-19T09:32:23;16.17;;;14.50;;
11139;SDS011;5624;49.388;11.350;2022-08-19T09:34:50;16.20;;;14.45;;
11139;SDS011;5624;49.388;11.350;2022-08-19T09:37:19;16.05;;;14.40;;
11139;SDS011;5624;49.388;11.350;2022-08-19T09:39:45;16.85;;;14.73;;
11139;SDS011;5624;49.388;11.350;2022-08-19T09:42:11;15.10;;;13.50;;
11139;SDS011;5624;49.388;11.350;2022-08-19T09:44:38;16.60;;;14.88;;
11139;SDS011;5624;49.388;11.350;2022-08-19T09:47:05;16.77;;;14.98;;
11139;SDS011;5624;49.388;11.350;2022-08-19T09:49:32;17.00;;;15.23;;
11139;SDS011;5624;49.388;11.350;2022-08-19T09:51:58;15.82;;;14.15;;
11139;SDS011;5624;49.388;11.350;2022-08-19T09:54:24;17.80;;;15.93;;
11139;SDS011;5624;49.388;11.350;2022-08-19T09:56:51;17.02;;;15.23;;
11139;SDS011;5624;49.388;11.350;2022-08-19T09:59:18;17.67;;;15.60;;
11139;SDS011;5624;49.388;11.350;2022-08-19T10:01:44;16.73;;;14.90;;
11139;SDS011;5624;49.388;11.350;2022-08-19T10:04:10;19.05;;;15.38;;
11139;SDS011;5624;49.388;11.350;2022-08-19T10:06:37;17.52;;;15.13;;
11139;SDS011;5624;49.388;11.350;2022-08-19T10:09:05;17.95;;;15.38;;
11139;SDS011;5624;49.388;11.350;2022-08-19T10:11:33;18.33;;;15.20;;
11139;SDS011;5624;49.388;11.350;2022-08-19T10:14:01;17.58;;;14.50;;
11139;SDS011;5624;49.388;11.350;2022-08-19T10:16:30;16.25;;;14.07;;
11139;SDS011;5624;49.388;11.350;2022-08-19T10:18:57;16.67;;;14.63;;
11139;SDS011;5624;49.388;11.350;2022-08-19T10:21:28;16.27;;;14.57;;
11139;SDS011;5624;49.388;11.350;2022-08-19T10:23:57;16.10;;;14.40;;
11139;SDS011;5624;49.388;11.350;2022-08-19T10:26:26;19.42;;;15.93;;
11139;SDS011;5624;49.388;11.350;2022-08-19T10:28:54;17.80;;;15.82;;
11139;SDS011;5624;49.388;11.350;2022-08-19T10:31:23;20.40;;;18.25;;
11139;SDS011;5624;49.388;11.350;2022-08-19T10:33:52;19.65;;;16.90;;
11139;SDS011;5624;49.388;11.350;2022-08-19T10:36:23;20.40;;;17.73;;
11139;SDS011;5624;49.388;11.350;2022-08-19T10:38:55;18.95;;;16.73;;
11139;SDS011;5624;49.388;11.350;2022-08-19T10:41:25;19.60;;;17.13;;
11139;SDS011;5624;49.388;11.350;2022-08-19T10:43:55;19.52;;;17.45;;
11139;SDS011;5624;49.388;11.350;2022-08-19T10:46:27;19.27;;;17.27;;
11139;SDS011;5624;49.388;11.350;2022-08-19T10:48:58;19.38;;;16.85;;
11139;SDS011;5624;49.388;11.350;2022-08-19T10:51:25;18.63;;;16.73;;
11139;SDS011;5624;49.388;11.350;2022-08-19T10:54:10;18.45;;;16.65;;
11139;SDS011;5624;49.388;11.350;2022-08-19T10:56:37;19.58;;;17.38;;
11139;SDS011;5624;49.388;11.350;2022-08-19T10:59:16;18.30;;;16.40;;
11139;SDS011;5624;49.388;11.350;2022-08-19T11:01:54;18.38;;;16.48;;
11139;SDS011;5624;49.388;11.350;2022-08-19T11:04:27;19.33;;;17.33;;
11139;SDS011;5624;49.388;11.350;2022-08-19T11:06:55;19.13;;;17.10;;
11139;SDS011;5624;49.388;11.350;2022-08-19T11:09:23;19.17;;;17.17;;
11139;SDS011;5624;49.388;11.350;2022-08-19T11:11:54;20.85;;;18.65;;
11139;SDS011;5624;49.388;11.350;2022-08-19T11:14:22;18.38;;;16.42;;
11139;SDS011;5624;49.388;11.350;2022-08-19T11:16:50;20.58;;;18.27;;
11139;SDS011;5624;49.388;11.350;2022-08-19T11:19:21;18.05;;;16.20;;
11139;SDS011;5624;49.388;11.350;2022-08-19T11:21:49;20.73;;;18.55;;
11139;SDS011;5624;49.388;11.350;2022-08-19T11:24:16;22.02;;;19.92;;
11139;SDS011;5624;49.388;11.350;2022-08-19T11:26:44;19.77;;;17.88;;
11139;SDS011;5624;49.388;11.350;2022-08-19T11:29:11;20.85;;;18.73;;
11139;SDS011;5624;49.388;11.350;2022-08-19T11:31:40;21.05;;;19.08;;
11139;SDS011;5624;49.388;11.350;2022-08-19T11:34:09;22.10;;;19.92;;
11139;SDS011;5624;49.388;11.350;2022-08-19T11:36:42;23.40;;;21.17;;
11139;SDS011;5624;49.388;11.350;2022-08-19T11:39:11;23.33;;;21.00;;
11139;SDS011;5624;49.388;11.350;2022-08-19T11:41:39;23.60;;;21.23;;
11139;SDS011;5624;49.388;11.350;2022-08-19T11:44:06;23.63;;;21.23;;
11139;SDS011;5624;49.388;11.350;2022-08-19T11:46:33;24.75;;;22.20;;
11139;SDS011;5624;49.388;11.350;2022-08-19T11:49:02;23.42;;;21.23;;
11139;SDS011;5624;49.388;11.350;2022-08-19T11:51:30;25.02;;;22.83;;
11139;SDS011;5624;49.388;11.350;2022-08-19T11:53:59;24.02;;;21.70;;
11139;SDS011;5624;49.388;11.350;2022-08-19T11:56:26;24.02;;;21.55;;
11139;SDS011;5624;49.388;11.350;2022-08-19T11:58:54;23.98;;;21.52;;
11139;SDS011;5624;49.388;11.350;2022-08-19T12:01:22;25.55;;;23.08;;
11139;SDS011;5624;49.388;11.350;2022-08-19T12:03:50;24.67;;;22.38;;
11139;SDS011;5624;49.388;11.350;2022-08-19T12:06:20;25.85;;;23.15;;
11139;SDS011;5624;49.388;11.350;2022-08-19T12:08:54;25.55;;;23.05;;
11139;SDS011;5624;49.388;11.350;2022-08-19T12:11:21;24.38;;;22.08;;
11139;SDS011;5624;49.388;11.350;2022-08-19T12:13:47;24.42;;;22.02;;
11139;SDS011;5624;49.388;11.350;2022-08-19T12:16:15;24.60;;;22.17;;
11139;SDS011;5624;49.388;11.350;2022-08-19T12:18:46;26.52;;;23.83;;
11139;SDS011;5624;49.388;11.350;2022-08-19T12:21:15;26.23;;;23.65;;
11139;SDS011;5624;49.388;11.350;2022-08-19T12:23:43;23.38;;;21.02;;
11139;SDS011;5624;49.388;11.350;2022-08-19T12:26:10;23.20;;;20.52;;
11139;SDS011;5624;49.388;11.350;2022-08-19T12:28:36;22.20;;;20.08;;
11139;SDS011;5624;49.388;11.350;2022-08-19T12:31:02;23.33;;;20.98;;
11139;SDS011;5624;49.388;11.350;2022-08-19T12:33:29;23.67;;;21.27;;
11139;SDS011;5624;49.388;11.350;2022-08-19T12:36:00;22.48;;;20.27;;
11139;SDS011;5624;49.388;11.350;2022-08-19T12:38:30;23.88;;;21.48;;
11139;SDS011;5624;49.388;11.350;2022-08-19T12:40:57;22.52;;;20.25;;
11139;SDS011;5624;49.388;11.350;2022-08-19T12:43:24;21.83;;;19.65;;
11139;SDS011;5624;49.388;11.350;2022-08-19T12:45:50;22.67;;;20.50;;
11139;SDS011;5624;49.388;11.350;2022-08-19T12:48:15;22.80;;;20.60;;
11139;SDS011;5624;49.388;11.350;2022-08-19T12:50:43;24.58;;;22.08;;
11139;SDS011;5624;49.388;11.350;2022-08-19T12:53:12;23.98;;;21.48;;
11139;SDS011;5624;49.388;11.350;2022-08-19T12:55:39;22.92;;;20.75;;
11139;SDS011;5624;49.388;11.350;2022-08-19T12:58:08;22.83;;;20.77;;
11139;SDS011;5624;49.388;11.350;2022-08-19T13:00:34;22.77;;;20.73;;
11139;SDS011;5624;49.388;11.350;2022-08-19T13:03:00;23.55;;;21.25;;
11139;SDS011;5624;49.388;11.350;2022-08-19T13:05:28;22.98;;;20.65;;
11139;SDS011;5624;49.388;11.350;2022-08-19T13:07:56;23.88;;;21.50;;
11139;SDS011;5624;49.388;11.350;2022-08-19T13:10:25;24.70;;;22.33;;
11139;SDS011;5624;49.388;11.350;2022-08-19T13:12:53;24.27;;;21.98;;
11139;SDS011;5624;49.388;11.350;2022-08-19T13:15:19;22.27;;;20.08;;
11139;SDS011;5624;49.388;11.350;2022-08-19T13:17:47;25.30;;;23.00;;
11139;SDS011;5624;49.388;11.350;2022-08-19T13:20:16;24.30;;;22.08;;
11139;SDS011;5624;49.388;11.350;2022-08-19T13:22:44;24.40;;;21.90;;
11139;SDS011;5624;49.388;11.350;2022-08-19T13:25:11;24.00;;;21.77;;
11139;SDS011;5624;49.388;11.350;2022-08-19T13:27:38;23.88;;;21.33;;
11139;SDS011;5624;49.388;11.350;2022-08-19T13:30:06;27.08;;;24.38;;
11139;SDS011;5624;49.388;11.350;2022-08-19T13:32:51;22.70;;;20.60;;
11139;SDS011;5624;49.388;11.350;2022-08-19T13:35:36;24.05;;;21.52;;
11139;SDS011;5624;49.388;11.350;2022-08-19T13:38:06;23.33;;;21.00;;
11139;SDS011;5624;49.388;11.350;2022-08-19T13:40:32;22.80;;;20.60;;
11139;SDS011;5624;49.388;11.350;2022-08-19T13:42:58;22.63;;;20.40;;
11139;SDS011;5624;49.388;11.350;2022-08-19T13:45:27;23.20;;;20.85;;
11139;SDS011;5624;49.388;11.350;2022-08-19T13:47:54;24.95;;;22.48;;
11139;SDS011;5624;49.388;11.350;2022-08-19T13:50:23;24.52;;;21.90;;
11139;SDS011;5624;49.388;11.350;2022-08-19T13:52:51;24.60;;;22.00;;
11139;SDS011;5624;49.388;11.350;2022-08-19T13:55:18;24.27;;;21.88;;
11139;SDS011;5624;49.388;11.350;2022-08-19T13:57:45;25.08;;;22.48;;
11139;SDS011;5624;49.388;11.350;2022-08-19T14:00:15;25.83;;;23.13;;
11139;SDS011;5624;49.388;11.350;2022-08-19T14:02:45;25.90;;;22.70;;
11139;SDS011;5624;49.388;11.350;2022-08-19T14:05:13;21.50;;;19.30;;
11139;SDS011;5624;49.388;11.350;2022-08-19T14:07:41;20.10;;;18.02;;
11139;SDS011;5624;49.388;11.350;2022-08-19T14:10:08;15.05;;;13.40;;
11139;SDS011;5624;49.388;11.350;2022-08-19T14:12:35;15.77;;;14.18;;
11139;SDS011;5624;49.388;11.350;2022-08-19T14:15:02;15.48;;;12.43;;
11139;SDS011;5624;49.388;11.350;2022-08-19T14:17:29;14.70;;;13.20;;
11139;SDS011;5624;49.388;11.350;2022-08-19T14:19:58;12.95;;;11.05;;
11139;SDS011;5624;49.388;11.350;2022-08-19T14:22:31;12.00;;;10.00;;
11139;SDS011;5624;49.388;11.350;2022-08-19T14:24:57;10.77;;;9.68;;
11139;SDS011;5624;49.388;11.350;2022-08-19T14:27:23;11.35;;;8.95;;
11139;SDS011;5624;49.388;11.350;2022-08-19T14:29:50;8.27;;;7.47;;
11139;SDS011;5624;49.388;11.350;2022-08-19T14:32:17;8.70;;;7.80;;
11139;SDS011;5624;49.388;11.350;2022-08-19T14:34:43;10.57;;;8.25;;
11139;SDS011;5624;49.388;11.350;2022-08-19T14:37:11;9.55;;;8.25;;
11139;SDS011;5624;49.388;11.350;2022-08-19T14:39:41;9.32;;;8.05;;
11139;SDS011;5624;49.388;11.350;2022-08-19T14:42:08;9.38;;;8.23;;